sensor_id;sensor_type;location;lat;lon;timestamp;temperature;humidity
30037;DHT22;36325;51.512;-0.382;2023-04-28T00:01:44;11.80;99.90
30037;DHT22;36325;51.512;-0.382;2023-04-28T00:04:11;11.80;99.90
30037;DHT22;36325;51.512;-0.382;2023-04-28T00:06:39;11.70;99.90
30037;DHT22;36325;51.512;-0.382;2023-04-28T00:09:07;11.80;99.90
30037;DHT22;36325;51.512;-0.382;2023-04-28T00:11:37;11.80;99.90
30037;DHT22;36325;51.512;-0.382;2023-04-28T00:14:05;11.80;99.90
30037;DHT22;36325;51.512;-0.382;2023-04-28T00:16:32;11.80;99.90
30037;DHT22;36325;51.512;-0.382;2023-04-28T00:18:59;11.80;99.90
30037;DHT22;36325;51.512;-0.382;2023-04-28T00:21:26;11.80;99.90
30037;DHT22;36325;51.512;-0.382;2023-04-28T00:23:54;11.80;99.90
30037;DHT22;36325;51.512;-0.382;2023-04-28T00:26:21;11.80;99.90
30037;DHT22;36325;51.512;-0.382;2023-04-28T00:28:49;11.80;99.90
30037;DHT22;36325;51.512;-0.382;2023-04-28T00:31:16;11.80;99.90
30037;DHT22;36325;51.512;-0.382;2023-04-28T00:33:44;11.80;99.90
30037;DHT22;36325;51.512;-0.382;2023-04-28T00:36:11;11.80;99.90
30037;DHT22;36325;51.512;-0.382;2023-04-28T00:38:38;11.90;99.90
30037;DHT22;36325;51.512;-0.382;2023-04-28T00:41:05;11.90;99.90
30037;DHT22;36325;51.512;-0.382;2023-04-28T00:43:45;11.90;99.90
30037;DHT22;36325;51.512;-0.382;2023-04-28T00:46:23;11.90;99.90
30037;DHT22;36325;51.512;-0.382;2023-04-28T00:48:51;12.00;99.90
30037;DHT22;36325;51.512;-0.382;2023-04-28T00:51:18;12.00;99.90
30037;DHT22;36325;51.512;-0.382;2023-04-28T00:53:45;12.00;99.90
30037;DHT22;36325;51.512;-0.382;2023-04-28T00:56:13;12.00;99.90
30037;DHT22;36325;51.512;-0.382;2023-04-28T00:58:41;12.10;99.90
30037;DHT22;36325;51.512;-0.382;2023-04-28T01:01:09;12.00;99.90
30037;DHT22;36325;51.512;-0.382;2023-04-28T01:03:38;12.10;99.90
30037;DHT22;36325;51.512;-0.382;2023-04-28T01:06:08;12.10;99.90
30037;DHT22;36325;51.512;-0.382;2023-04-28T01:08:37;12.10;99.90
30037;DHT22;36325;51.512;-0.382;2023-04-28T01:11:09;12.10;99.90
30037;DHT22;36325;51.512;-0.382;2023-04-28T01:14:06;12.10;99.90
30037;DHT22;36325;51.512;-0.382;2023-04-28T01:16:37;12.10;99.90
30037;DHT22;36325;51.512;-0.382;2023-04-28T01:19:06;12.10;99.90
30037;DHT22;36325;51.512;-0.382;2023-04-28T01:21:37;12.20;99.90
30037;DHT22;36325;51.512;-0.382;2023-04-28T01:24:16;12.20;99.90
30037;DHT22;36325;51.512;-0.382;2023-04-28T01:26:44;12.20;99.90
30037;DHT22;36325;51.512;-0.382;2023-04-28T01:29:12;12.20;99.90
30037;DHT22;36325;51.512;-0.382;2023-04-28T01:31:40;12.20;99.90
30037;DHT22;36325;51.512;-0.382;2023-04-28T01:34:07;12.20;99.90
30037;DHT22;36325;51.512;-0.382;2023-04-28T01:36:35;12.20;99.90
30037;DHT22;36325;51.512;-0.382;2023-04-28T01:39:03;12.20;99.90
30037;DHT22;36325;51.512;-0.382;2023-04-28T01:41:31;12.30;99.90
30037;DHT22;36325;51.512;-0.382;2023-04-28T01:44:00;12.30;99.90
30037;DHT22;36325;51.512;-0.382;2023-04-28T01:46:27;12.30;99.90
30037;DHT22;36325;51.512;-0.382;2023-04-28T01:48:54;12.30;99.90
30037;DHT22;36325;51.512;-0.382;2023-04-28T01:51:21;12.30;99.90
30037;DHT22;36325;51.512;-0.382;2023-04-28T01:53:49;12.30;99.90
30037;DHT22;36325;51.512;-0.382;2023-04-28T01:56:17;11.30;99.90
30037;DHT22;36325;51.512;-0.382;2023-04-28T01:58:44;12.40;99.90
30037;DHT22;36325;51.512;-0.382;2023-04-28T02:01:12;12.40;99.90
30037;DHT22;36325;51.512;-0.382;2023-04-28T02:03:40;12.30;99.90
30037;DHT22;36325;51.512;-0.382;2023-04-28T02:06:07;12.40;99.90
30037;DHT22;36325;51.512;-0.382;2023-04-28T02:08:34;12.40;99.90
30037;DHT22;36325;51.512;-0.382;2023-04-28T02:11:02;12.40;99.90
30037;DHT22;36325;51.512;-0.382;2023-04-28T02:13:30;12.40;99.90
30037;DHT22;36325;51.512;-0.382;2023-04-28T02:15:59;12.50;99.90
30037;DHT22;36325;51.512;-0.382;2023-04-28T02:18:27;12.50;99.90
30037;DHT22;36325;51.512;-0.382;2023-04-28T02:21:10;12.50;99.90
30037;DHT22;36325;51.512;-0.382;2023-04-28T02:23:38;12.50;99.90
30037;DHT22;36325;51.512;-0.382;2023-04-28T02:26:05;12.50;99.90
30037;DHT22;36325;51.512;-0.382;2023-04-28T02:28:33;12.50;99.90
30037;DHT22;36325;51.512;-0.382;2023-04-28T02:31:08;12.50;99.90
30037;DHT22;36325;51.512;-0.382;2023-04-28T02:33:36;12.50;99.90
30037;DHT22;36325;51.512;-0.382;2023-04-28T02:36:04;12.60;99.90
30037;DHT22;36325;51.512;-0.382;2023-04-28T02:38:32;12.60;99.90
30037;DHT22;36325;51.512;-0.382;2023-04-28T02:41:02;12.60;99.90
30037;DHT22;36325;51.512;-0.382;2023-04-28T02:43:31;12.60;99.90
30037;DHT22;36325;51.512;-0.382;2023-04-28T02:45:59;12.50;99.90
30037;DHT22;36325;51.512;-0.382;2023-04-28T02:48:26;12.60;99.90
30037;DHT22;36325;51.512;-0.382;2023-04-28T02:50:53;12.60;99.90
30037;DHT22;36325;51.512;-0.382;2023-04-28T02:53:21;12.60;99.90
30037;DHT22;36325;51.512;-0.382;2023-04-28T02:55:49;12.60;99.90
30037;DHT22;36325;51.512;-0.382;2023-04-28T02:58:16;12.60;99.90
30037;DHT22;36325;51.512;-0.382;2023-04-28T03:00:45;12.60;99.90
30037;DHT22;36325;51.512;-0.382;2023-04-28T03:03:13;12.60;99.90
30037;DHT22;36325;51.512;-0.382;2023-04-28T03:05:40;12.60;99.90
30037;DHT22;36325;51.512;-0.382;2023-04-28T03:08:08;12.60;99.90
30037;DHT22;36325;51.512;-0.382;2023-04-28T03:10:35;12.60;99.90
30037;DHT22;36325;51.512;-0.382;2023-04-28T03:13:03;12.60;99.90
30037;DHT22;36325;51.512;-0.382;2023-04-28T03:15:30;12.60;99.90
30037;DHT22;36325;51.512;-0.382;2023-04-28T03:17:58;12.60;99.90
30037;DHT22;36325;51.512;-0.382;2023-04-28T03:20:25;12.60;99.90
30037;DHT22;36325;51.512;-0.382;2023-04-28T03:22:52;12.60;99.90
30037;DHT22;36325;51.512;-0.382;2023-04-28T03:25:19;12.60;99.90
30037;DHT22;36325;51.512;-0.382;2023-04-28T03:27:49;12.60;99.90
30037;DHT22;36325;51.512;-0.382;2023-04-28T03:30:17;12.60;99.90
30037;DHT22;36325;51.512;-0.382;2023-04-28T03:32:45;12.60;99.90
30037;DHT22;36325;51.512;-0.382;2023-04-28T03:35:13;12.60;99.90
30037;DHT22;36325;51.512;-0.382;2023-04-28T03:37:41;12.60;99.90
30037;DHT22;36325;51.512;-0.382;2023-04-28T03:40:08;12.60;99.90
30037;DHT22;36325;51.512;-0.382;2023-04-28T03:43:02;12.60;99.90
30037;DHT22;36325;51.512;-0.382;2023-04-28T03:45:37;12.60;99.90
30037;DHT22;36325;51.512;-0.382;2023-04-28T03:48:05;12.60;99.90
30037;DHT22;36325;51.512;-0.382;2023-04-28T03:50:33;12.50;99.90
30037;DHT22;36325;51.512;-0.382;2023-04-28T03:53:00;12.50;99.90
30037;DHT22;36325;51.512;-0.382;2023-04-28T03:55:28;12.50;99.90
30037;DHT22;36325;51.512;-0.382;2023-04-28T03:57:55;12.50;99.90
30037;DHT22;36325;51.512;-0.382;2023-04-28T04:00:22;12.50;99.90
30037;DHT22;36325;51.512;-0.382;2023-04-28T04:02:51;12.50;99.90
30037;DHT22;36325;51.512;-0.382;2023-04-28T04:05:19;12.50;99.90
30037;DHT22;36325;51.512;-0.382;2023-04-28T04:07:47;12.50;99.90
30037;DHT22;36325;51.512;-0.382;2023-04-28T04:10:14;12.50;99.90
30037;DHT22;36325;51.512;-0.382;2023-04-28T04:12:43;12.50;99.90
30037;DHT22;36325;51.512;-0.382;2023-04-28T04:15:11;12.50;99.90
30037;DHT22;36325;51.512;-0.382;2023-04-28T04:17:39;12.50;99.90
30037;DHT22;36325;51.512;-0.382;2023-04-28T04:20:07;12.50;99.90
30037;DHT22;36325;51.512;-0.382;2023-04-28T04:22:34;12.50;99.90
30037;DHT22;36325;51.512;-0.382;2023-04-28T04:25:02;12.50;99.90
30037;DHT22;36325;51.512;-0.382;2023-04-28T04:27:29;12.50;99.90
30037;DHT22;36325;51.512;-0.382;2023-04-28T04:29:57;12.50;99.90
30037;DHT22;36325;51.512;-0.382;2023-04-28T04:32:25;12.40;99.90
30037;DHT22;36325;51.512;-0.382;2023-04-28T04:34:53;12.40;99.90
30037;DHT22;36325;51.512;-0.382;2023-04-28T04:37:21;12.50;99.90
30037;DHT22;36325;51.512;-0.382;2023-04-28T04:40:00;12.50;99.90
30037;DHT22;36325;51.512;-0.382;2023-04-28T04:42:33;12.40;99.90
30037;DHT22;36325;51.512;-0.382;2023-04-28T04:45:11;12.50;99.90
30037;DHT22;36325;51.512;-0.382;2023-04-28T04:47:40;12.50;99.90
30037;DHT22;36325;51.512;-0.382;2023-04-28T04:50:08;12.50;99.90
30037;DHT22;36325;51.512;-0.382;2023-04-28T04:52:35;12.50;99.90
30037;DHT22;36325;51.512;-0.382;2023-04-28T04:55:03;12.50;99.90
30037;DHT22;36325;51.512;-0.382;2023-04-28T04:57:32;12.50;99.90
30037;DHT22;36325;51.512;-0.382;2023-04-28T05:00:08;12.50;99.90
30037;DHT22;36325;51.512;-0.382;2023-04-28T05:02:36;12.40;99.90
30037;DHT22;36325;51.512;-0.382;2023-04-28T05:05:05;12.40;99.90
30037;DHT22;36325;51.512;-0.382;2023-04-28T05:07:49;12.50;99.90
30037;DHT22;36325;51.512;-0.382;2023-04-28T05:10:17;12.50;99.90
30037;DHT22;36325;51.512;-0.382;2023-04-28T05:12:44;12.50;99.90
30037;DHT22;36325;51.512;-0.382;2023-04-28T05:15:16;12.50;99.90
30037;DHT22;36325;51.512;-0.382;2023-04-28T05:17:55;12.50;99.90
30037;DHT22;36325;51.512;-0.382;2023-04-28T05:20:23;12.50;99.90
30037;DHT22;36325;51.512;-0.382;2023-04-28T05:22:50;12.60;99.90
30037;DHT22;36325;51.512;-0.382;2023-04-28T05:25:17;12.60;99.90
30037;DHT22;36325;51.512;-0.382;2023-04-28T05:27:45;12.60;99.90
30037;DHT22;36325;51.512;-0.382;2023-04-28T05:30:12;12.60;99.90
30037;DHT22;36325;51.512;-0.382;2023-04-28T05:32:41;12.60;99.90
30037;DHT22;36325;51.512;-0.382;2023-04-28T05:35:08;12.60;99.90
30037;DHT22;36325;51.512;-0.382;2023-04-28T05:37:35;12.60;99.90
30037;DHT22;36325;51.512;-0.382;2023-04-28T05:40:04;12.60;99.90
30037;DHT22;36325;51.512;-0.382;2023-04-28T05:42:32;12.60;99.90
30037;DHT22;36325;51.512;-0.382;2023-04-28T05:45:00;12.70;99.90
30037;DHT22;36325;51.512;-0.382;2023-04-28T05:47:28;12.70;99.90
30037;DHT22;36325;51.512;-0.382;2023-04-28T05:49:57;12.70;99.90
30037;DHT22;36325;51.512;-0.382;2023-04-28T05:52:24;12.80;99.90
30037;DHT22;36325;51.512;-0.382;2023-04-28T05:54:52;12.80;99.90
30037;DHT22;36325;51.512;-0.382;2023-04-28T05:57:19;12.90;99.90
30037;DHT22;36325;51.512;-0.382;2023-04-28T05:59:47;12.90;99.90
30037;DHT22;36325;51.512;-0.382;2023-04-28T06:02:14;12.90;99.90
30037;DHT22;36325;51.512;-0.382;2023-04-28T06:04:41;12.90;99.90
30037;DHT22;36325;51.512;-0.382;2023-04-28T06:07:10;12.90;99.90
30037;DHT22;36325;51.512;-0.382;2023-04-28T06:09:37;13.00;99.90
30037;DHT22;36325;51.512;-0.382;2023-04-28T06:12:07;13.00;99.90
30037;DHT22;36325;51.512;-0.382;2023-04-28T06:14:34;13.00;99.90
30037;DHT22;36325;51.512;-0.382;2023-04-28T06:17:03;13.10;99.90
30037;DHT22;36325;51.512;-0.382;2023-04-28T06:19:31;13.10;99.90
30037;DHT22;36325;51.512;-0.382;2023-04-28T06:21:58;13.00;99.90
30037;DHT22;36325;51.512;-0.382;2023-04-28T06:24:26;13.00;99.90
30037;DHT22;36325;51.512;-0.382;2023-04-28T06:26:55;13.00;99.90
30037;DHT22;36325;51.512;-0.382;2023-04-28T06:31:50;13.10;99.90
30037;DHT22;36325;51.512;-0.382;2023-04-28T06:34:18;13.10;99.90
30037;DHT22;36325;51.512;-0.382;2023-04-28T06:36:45;13.10;99.90
30037;DHT22;36325;51.512;-0.382;2023-04-28T06:39:13;13.10;99.90
30037;DHT22;36325;51.512;-0.382;2023-04-28T06:41:40;13.20;99.90
30037;DHT22;36325;51.512;-0.382;2023-04-28T06:44:09;13.20;99.90
30037;DHT22;36325;51.512;-0.382;2023-04-28T06:46:38;13.30;99.90
30037;DHT22;36325;51.512;-0.382;2023-04-28T06:49:06;13.30;99.90
30037;DHT22;36325;51.512;-0.382;2023-04-28T06:51:33;13.30;99.90
30037;DHT22;36325;51.512;-0.382;2023-04-28T06:54:00;13.40;99.90
30037;DHT22;36325;51.512;-0.382;2023-04-28T06:56:28;13.40;99.90
30037;DHT22;36325;51.512;-0.382;2023-04-28T06:58:55;13.50;99.90
30037;DHT22;36325;51.512;-0.382;2023-04-28T07:01:25;13.50;99.90
30037;DHT22;36325;51.512;-0.382;2023-04-28T07:03:53;13.60;99.90
30037;DHT22;36325;51.512;-0.382;2023-04-28T07:06:20;13.60;99.90
30037;DHT22;36325;51.512;-0.382;2023-04-28T07:08:48;13.60;99.90
30037;DHT22;36325;51.512;-0.382;2023-04-28T07:11:15;13.60;99.90
30037;DHT22;36325;51.512;-0.382;2023-04-28T07:13:43;13.60;99.90
30037;DHT22;36325;51.512;-0.382;2023-04-28T07:16:18;13.60;99.90
30037;DHT22;36325;51.512;-0.382;2023-04-28T07:18:46;13.60;99.90
30037;DHT22;36325;51.512;-0.382;2023-04-28T07:21:13;16.10;99.90
30037;DHT22;36325;51.512;-0.382;2023-04-28T07:23:40;13.70;99.90
30037;DHT22;36325;51.512;-0.382;2023-04-28T07:26:07;13.80;99.90
30037;DHT22;36325;51.512;-0.382;2023-04-28T07:28:35;14.00;99.90
30037;DHT22;36325;51.512;-0.382;2023-04-28T07:31:02;14.10;99.90
30037;DHT22;36325;51.512;-0.382;2023-04-28T07:33:29;14.20;99.90
30037;DHT22;36325;51.512;-0.382;2023-04-28T07:35:56;14.30;99.90
30037;DHT22;36325;51.512;-0.382;2023-04-28T07:38:24;14.40;99.90
30037;DHT22;36325;51.512;-0.382;2023-04-28T07:40:51;14.60;99.90
30037;DHT22;36325;51.512;-0.382;2023-04-28T07:43:18;14.60;99.90
30037;DHT22;36325;51.512;-0.382;2023-04-28T07:45:46;14.70;99.90
30037;DHT22;36325;51.512;-0.382;2023-04-28T07:48:15;14.70;99.90
30037;DHT22;36325;51.512;-0.382;2023-04-28T07:50:43;14.80;99.90
30037;DHT22;36325;51.512;-0.382;2023-04-28T07:53:10;14.90;99.90
30037;DHT22;36325;51.512;-0.382;2023-04-28T07:55:37;15.00;99.90
30037;DHT22;36325;51.512;-0.382;2023-04-28T07:58:08;15.00;99.90
30037;DHT22;36325;51.512;-0.382;2023-04-28T08:00:35;15.00;99.90
30037;DHT22;36325;51.512;-0.382;2023-04-28T08:03:02;15.00;99.90
30037;DHT22;36325;51.512;-0.382;2023-04-28T08:05:30;15.00;99.90
30037;DHT22;36325;51.512;-0.382;2023-04-28T08:07:58;15.10;99.90
30037;DHT22;36325;51.512;-0.382;2023-04-28T08:10:25;15.30;99.90
30037;DHT22;36325;51.512;-0.382;2023-04-28T08:12:53;15.30;99.90
30037;DHT22;36325;51.512;-0.382;2023-04-28T08:15:20;15.60;99.90
30037;DHT22;36325;51.512;-0.382;2023-04-28T08:17:48;15.60;99.90
30037;DHT22;36325;51.512;-0.382;2023-04-28T08:20:15;15.60;99.90
30037;DHT22;36325;51.512;-0.382;2023-04-28T08:22:47;15.70;99.90
30037;DHT22;36325;51.512;-0.382;2023-04-28T08:25:14;15.70;99.90
30037;DHT22;36325;51.512;-0.382;2023-04-28T08:27:42;15.90;99.90
30037;DHT22;36325;51.512;-0.382;2023-04-28T08:30:10;16.00;99.90
30037;DHT22;36325;51.512;-0.382;2023-04-28T08:32:40;16.10;99.90
30037;DHT22;36325;51.512;-0.382;2023-04-28T08:35:08;16.10;99.90
30037;DHT22;36325;51.512;-0.382;2023-04-28T08:37:36;16.20;99.90
30037;DHT22;36325;51.512;-0.382;2023-04-28T08:40:04;16.20;99.90
30037;DHT22;36325;51.512;-0.382;2023-04-28T08:42:36;16.20;99.90
30037;DHT22;36325;51.512;-0.382;2023-04-28T08:45:04;16.00;99.90
30037;DHT22;36325;51.512;-0.382;2023-04-28T08:47:38;15.90;99.90
30037;DHT22;36325;51.512;-0.382;2023-04-28T08:50:20;15.80;99.90
30037;DHT22;36325;51.512;-0.382;2023-04-28T08:52:51;15.70;99.90
30037;DHT22;36325;51.512;-0.382;2023-04-28T08:55:18;15.70;99.90
30037;DHT22;36325;51.512;-0.382;2023-04-28T08:57:49;15.70;99.90
30037;DHT22;36325;51.512;-0.382;2023-04-28T09:00:21;15.80;99.90
30037;DHT22;36325;51.512;-0.382;2023-04-28T09:02:49;15.90;99.90
30037;DHT22;36325;51.512;-0.382;2023-04-28T09:05:16;16.10;99.90
30037;DHT22;36325;51.512;-0.382;2023-04-28T09:07:45;16.50;99.90
30037;DHT22;36325;51.512;-0.382;2023-04-28T09:10:18;17.00;99.90
30037;DHT22;36325;51.512;-0.382;2023-04-28T09:12:47;17.40;99.90
30037;DHT22;36325;51.512;-0.382;2023-04-28T09:18:01;17.30;99.90
30037;DHT22;36325;51.512;-0.382;2023-04-28T09:20:30;17.30;99.90
30037;DHT22;36325;51.512;-0.382;2023-04-28T09:23:13;17.40;99.90
30037;DHT22;36325;51.512;-0.382;2023-04-28T09:26:04;17.40;99.90
30037;DHT22;36325;51.512;-0.382;2023-04-28T09:28:34;17.40;99.90
30037;DHT22;36325;51.512;-0.382;2023-04-28T09:31:02;17.40;99.90
30037;DHT22;36325;51.512;-0.382;2023-04-28T09:33:30;17.30;99.90
30037;DHT22;36325;51.512;-0.382;2023-04-28T09:35:57;17.30;99.90
30037;DHT22;36325;51.512;-0.382;2023-04-28T09:38:24;17.30;99.90
30037;DHT22;36325;51.512;-0.382;2023-04-28T09:41:00;17.10;99.90
30037;DHT22;36325;51.512;-0.382;2023-04-28T09:43:34;16.80;99.90
30037;DHT22;36325;51.512;-0.382;2023-04-28T09:46:03;16.50;99.90
30037;DHT22;36325;51.512;-0.382;2023-04-28T09:48:37;16.40;99.90
30037;DHT22;36325;51.512;-0.382;2023-04-28T09:51:05;16.50;99.90
30037;DHT22;36325;51.512;-0.382;2023-04-28T09:53:33;16.50;99.90
30037;DHT22;36325;51.512;-0.382;2023-04-28T09:56:02;16.50;99.90
30037;DHT22;36325;51.512;-0.382;2023-04-28T09:58:33;16.50;99.90
30037;DHT22;36325;51.512;-0.382;2023-04-28T10:01:05;16.50;99.90
30037;DHT22;36325;51.512;-0.382;2023-04-28T10:03:34;16.40;99.90
30037;DHT22;36325;51.512;-0.382;2023-04-28T10:06:02;16.40;99.90
30037;DHT22;36325;51.512;-0.382;2023-04-28T10:08:30;16.10;99.90
30037;DHT22;36325;51.512;-0.382;2023-04-28T10:10:57;16.10;99.90
30037;DHT22;36325;51.512;-0.382;2023-04-28T10:13:24;15.90;99.90
30037;DHT22;36325;51.512;-0.382;2023-04-28T10:15:52;16.10;99.90
30037;DHT22;36325;51.512;-0.382;2023-04-28T10:18:24;16.00;99.90
30037;DHT22;36325;51.512;-0.382;2023-04-28T10:21:02;16.20;99.90
30037;DHT22;36325;51.512;-0.382;2023-04-28T10:26:16;17.30;99.90
30037;DHT22;36325;51.512;-0.382;2023-04-28T10:28:49;16.90;99.90
30037;DHT22;36325;51.512;-0.382;2023-04-28T10:31:18;16.90;99.90
30037;DHT22;36325;51.512;-0.382;2023-04-28T10:33:49;17.00;99.90
30037;DHT22;36325;51.512;-0.382;2023-04-28T10:36:45;17.10;99.90
30037;DHT22;36325;51.512;-0.382;2023-04-28T10:39:13;17.40;99.90
30037;DHT22;36325;51.512;-0.382;2023-04-28T10:41:41;18.80;99.90
30037;DHT22;36325;51.512;-0.382;2023-04-28T10:44:40;17.50;99.90
30037;DHT22;36325;51.512;-0.382;2023-04-28T10:47:08;17.70;99.90
30037;DHT22;36325;51.512;-0.382;2023-04-28T10:55:27;18.10;99.90
30037;DHT22;36325;51.512;-0.382;2023-04-28T11:00:44;18.70;99.90
30037;DHT22;36325;51.512;-0.382;2023-04-28T11:03:38;18.90;99.90
30037;DHT22;36325;51.512;-0.382;2023-04-28T11:06:22;18.60;99.90
30037;DHT22;36325;51.512;-0.382;2023-04-28T11:09:00;18.00;99.90
30037;DHT22;36325;51.512;-0.382;2023-04-28T11:11:28;18.00;99.90
30037;DHT22;36325;51.512;-0.382;2023-04-28T11:17:07;17.30;99.90
30037;DHT22;36325;51.512;-0.382;2023-04-28T11:19:37;17.20;99.90
30037;DHT22;36325;51.512;-0.382;2023-04-28T11:22:21;17.80;99.90
30037;DHT22;36325;51.512;-0.382;2023-04-28T11:25:00;17.80;99.90
30037;DHT22;36325;51.512;-0.382;2023-04-28T11:27:30;18.40;99.90
30037;DHT22;36325;51.512;-0.382;2023-04-28T11:29:57;18.40;99.90
30037;DHT22;36325;51.512;-0.382;2023-04-28T11:32:30;18.50;99.90
30037;DHT22;36325;51.512;-0.382;2023-04-28T11:34:58;18.70;99.90
30037;DHT22;36325;51.512;-0.382;2023-04-28T11:37:26;18.90;99.90
30037;DHT22;36325;51.512;-0.382;2023-04-28T11:39:53;19.10;99.90
30037;DHT22;36325;51.512;-0.382;2023-04-28T11:42:20;19.40;99.90
30037;DHT22;36325;51.512;-0.382;2023-04-28T11:44:52;19.70;99.90
30037;DHT22;36325;51.512;-0.382;2023-04-28T11:47:29;19.70;99.90
30037;DHT22;36325;51.512;-0.382;2023-04-28T11:49:57;19.50;99.90
30037;DHT22;36325;51.512;-0.382;2023-04-28T11:52:24;19.50;99.90
30037;DHT22;36325;51.512;-0.382;2023-04-28T11:54:57;19.40;99.90
30037;DHT22;36325;51.512;-0.382;2023-04-28T11:57:26;19.30;99.90
30037;DHT22;36325;51.512;-0.382;2023-04-28T12:00:11;19.30;99.90
30037;DHT22;36325;51.512;-0.382;2023-04-28T12:02:38;19.30;99.90
30037;DHT22;36325;51.512;-0.382;2023-04-28T12:05:06;19.40;99.90
30037;DHT22;36325;51.512;-0.382;2023-04-28T12:07:43;19.50;99.90
30037;DHT22;36325;51.512;-0.382;2023-04-28T12:10:15;19.60;99.90
30037;DHT22;36325;51.512;-0.382;2023-04-28T12:12:43;19.70;99.90
30037;DHT22;36325;51.512;-0.382;2023-04-28T12:15:17;19.90;99.90
30037;DHT22;36325;51.512;-0.382;2023-04-28T12:17:47;20.30;99.90
30037;DHT22;36325;51.512;-0.382;2023-04-28T12:20:37;20.50;99.90
30037;DHT22;36325;51.512;-0.382;2023-04-28T12:23:05;20.70;99.90
30037;DHT22;36325;51.512;-0.382;2023-04-28T12:25:45;20.70;99.90
30037;DHT22;36325;51.512;-0.382;2023-04-28T12:28:13;20.80;99.90
30037;DHT22;36325;51.512;-0.382;2023-04-28T12:30:40;21.00;99.90
30037;DHT22;36325;51.512;-0.382;2023-04-28T12:33:26;21.90;99.90
30037;DHT22;36325;51.512;-0.382;2023-04-28T12:35:56;21.70;99.90
30037;DHT22;36325;51.512;-0.382;2023-04-28T12:38:24;21.40;99.90
30037;DHT22;36325;51.512;-0.382;2023-04-28T12:40:52;21.00;99.90
30037;DHT22;36325;51.512;-0.382;2023-04-28T12:43:19;20.60;99.90
30037;DHT22;36325;51.512;-0.382;2023-04-28T12:45:52;20.20;99.90
30037;DHT22;36325;51.512;-0.382;2023-04-28T12:48:20;18.40;99.90
30037;DHT22;36325;51.512;-0.382;2023-04-28T12:50:50;19.60;99.90
30037;DHT22;36325;51.512;-0.382;2023-04-28T12:53:17;19.50;99.90
30037;DHT22;36325;51.512;-0.382;2023-04-28T12:55:44;20.60;99.90
30037;DHT22;36325;51.512;-0.382;2023-04-28T12:58:11;22.80;99.90
30037;DHT22;36325;51.512;-0.382;2023-04-28T13:00:39;23.90;99.90
30037;DHT22;36325;51.512;-0.382;2023-04-28T13:03:09;23.80;99.90
30037;DHT22;36325;51.512;-0.382;2023-04-28T13:05:36;23.40;99.90
30037;DHT22;36325;51.512;-0.382;2023-04-28T13:08:03;22.80;99.90
30037;DHT22;36325;51.512;-0.382;2023-04-28T13:10:31;22.20;99.90
30037;DHT22;36325;51.512;-0.382;2023-04-28T13:12:58;21.70;99.90
30037;DHT22;36325;51.512;-0.382;2023-04-28T13:15:25;21.40;99.90
30037;DHT22;36325;51.512;-0.382;2023-04-28T13:17:53;21.20;99.90
30037;DHT22;36325;51.512;-0.382;2023-04-28T13:20:20;21.20;99.90
30037;DHT22;36325;51.512;-0.382;2023-04-28T13:22:47;21.10;99.90
30037;DHT22;36325;51.512;-0.382;2023-04-28T13:25:15;20.90;99.90
30037;DHT22;36325;51.512;-0.382;2023-04-28T13:27:42;20.50;99.90
30037;DHT22;36325;51.512;-0.382;2023-04-28T13:30:10;20.50;99.90
30037;DHT22;36325;51.512;-0.382;2023-04-28T13:32:37;20.30;99.90
30037;DHT22;36325;51.512;-0.382;2023-04-28T13:35:05;20.20;99.90
30037;DHT22;36325;51.512;-0.382;2023-04-28T13:37:33;20.40;99.90
30037;DHT22;36325;51.512;-0.382;2023-04-28T13:40:01;20.80;99.90
30037;DHT22;36325;51.512;-0.382;2023-04-28T13:42:30;22.00;99.90
30037;DHT22;36325;51.512;-0.382;2023-04-28T13:44:57;24.40;99.90
30037;DHT22;36325;51.512;-0.382;2023-04-28T13:47:24;25.30;99.90
30037;DHT22;36325;51.512;-0.382;2023-04-28T13:49:52;24.70;99.90
30037;DHT22;36325;51.512;-0.382;2023-04-28T13:52:19;24.70;99.90
30037;DHT22;36325;51.512;-0.382;2023-04-28T13:54:48;24.20;99.90
30037;DHT22;36325;51.512;-0.382;2023-04-28T13:57:15;23.90;99.90
30037;DHT22;36325;51.512;-0.382;2023-04-28T13:59:42;23.40;99.90
30037;DHT22;36325;51.512;-0.382;2023-04-28T14:02:09;23.10;99.90
30037;DHT22;36325;51.512;-0.382;2023-04-28T14:04:37;22.70;99.90
30037;DHT22;36325;51.512;-0.382;2023-04-28T14:07:04;22.20;99.90
30037;DHT22;36325;51.512;-0.382;2023-04-28T14:09:32;21.80;99.90
30037;DHT22;36325;51.512;-0.382;2023-04-28T14:11:59;21.60;99.90
30037;DHT22;36325;51.512;-0.382;2023-04-28T14:14:26;21.30;99.90
30037;DHT22;36325;51.512;-0.382;2023-04-28T14:16:54;21.10;99.90
30037;DHT22;36325;51.512;-0.382;2023-04-28T14:19:21;21.10;99.90
30037;DHT22;36325;51.512;-0.382;2023-04-28T14:21:51;21.10;99.90
30037;DHT22;36325;51.512;-0.382;2023-04-28T14:24:19;21.20;99.90
30037;DHT22;36325;51.512;-0.382;2023-04-28T14:26:46;21.20;99.90
30037;DHT22;36325;51.512;-0.382;2023-04-28T14:29:15;21.40;99.90
30037;DHT22;36325;51.512;-0.382;2023-04-28T14:31:42;21.60;99.90
30037;DHT22;36325;51.512;-0.382;2023-04-28T14:34:09;21.80;99.90
30037;DHT22;36325;51.512;-0.382;2023-04-28T14:36:37;22.00;99.90
30037;DHT22;36325;51.512;-0.382;2023-04-28T14:39:04;22.00;99.90
30037;DHT22;36325;51.512;-0.382;2023-04-28T14:41:31;22.00;99.90
30037;DHT22;36325;51.512;-0.382;2023-04-28T14:43:58;22.10;99.90
30037;DHT22;36325;51.512;-0.382;2023-04-28T14:46:25;22.60;99.90
30037;DHT22;36325;51.512;-0.382;2023-04-28T14:48:53;23.50;99.90
30037;DHT22;36325;51.512;-0.382;2023-04-28T14:51:21;23.70;99.90
30037;DHT22;36325;51.512;-0.382;2023-04-28T14:53:48;23.80;99.90
30037;DHT22;36325;51.512;-0.382;2023-04-28T14:56:16;23.80;99.90
30037;DHT22;36325;51.512;-0.382;2023-04-28T14:58:46;23.80;99.90
30037;DHT22;36325;51.512;-0.382;2023-04-28T15:01:14;23.70;99.90
30037;DHT22;36325;51.512;-0.382;2023-04-28T15:03:42;23.70;99.90
30037;DHT22;36325;51.512;-0.382;2023-04-28T15:06:09;23.60;99.90
30037;DHT22;36325;51.512;-0.382;2023-04-28T15:08:38;23.40;99.90
30037;DHT22;36325;51.512;-0.382;2023-04-28T15:11:06;23.30;99.90
30037;DHT22;36325;51.512;-0.382;2023-04-28T15:13:33;23.10;99.90
30037;DHT22;36325;51.512;-0.382;2023-04-28T15:16:01;22.90;99.90
30037;DHT22;36325;51.512;-0.382;2023-04-28T15:18:29;22.90;99.90
30037;DHT22;36325;51.512;-0.382;2023-04-28T15:20:56;22.80;99.90
30037;DHT22;36325;51.512;-0.382;2023-04-28T15:23:23;22.50;99.90
30037;DHT22;36325;51.512;-0.382;2023-04-28T15:25:50;22.60;99.90
30037;DHT22;36325;51.512;-0.382;2023-04-28T15:28:19;22.60;99.90
30037;DHT22;36325;51.512;-0.382;2023-04-28T15:30:46;22.50;99.90
30037;DHT22;36325;51.512;-0.382;2023-04-28T15:33:13;22.40;99.90
30037;DHT22;36325;51.512;-0.382;2023-04-28T15:35:43;22.40;99.90
30037;DHT22;36325;51.512;-0.382;2023-04-28T15:38:11;22.10;99.90
30037;DHT22;36325;51.512;-0.382;2023-04-28T15:40:39;22.10;99.90
30037;DHT22;36325;51.512;-0.382;2023-04-28T15:43:07;22.60;99.90
30037;DHT22;36325;51.512;-0.382;2023-04-28T15:45:34;23.70;99.90
30037;DHT22;36325;51.512;-0.382;2023-04-28T15:48:03;25.20;99.90